Hit Tracker is now ESPN Home Run Tracker! Hit Tracker founder Greg Rybarczyk is now collaborating with the ESPN Stats & Information Group to continue tracking all MLB home runs, and helping baseball fans know "How Far It Really Went!™" Please credit any information on this site to ESPN Stats & Information Group. For more information and analysis on home runs, please contact founder Greg Rybarczyk. E-Mail ESPN Home Run Tracker
Main Page | Ballparks | Park Overlays | Glossary | Highlight Homers | Feedback | Bio | 3 Types of HR's | AAA Home Run Derby Last Updated: July 25, 2014, 10:57 pm PST
Welcome to the ESPN Home Run Tracker! Check out the ESPN MLB Scoreboard throughout the 2014 season! Contact us at grybar@hittrackeronline.com.
Season:
Ballpark detail for Yankee Stadium
Ballpark # of Home Runs HR per game Avg.
True
Distance
Avg.
Speed
Off
Bat
Avg.
Std.
Dist.
Yankee Stadium 119 2.90 386.2 101.9 385.5

Scatter Plot of Home Runs Yankee Stadium
 Overlay Ballpark:
Without range rings   With range rings

2014 Season Home Runs for Yankee Stadium
Click headers to sort
Date Video Path Hitter Hitter
Team
Pitcher Pitcher
Team
INN ^ Ballpark Type/
Luck
True
Dist.
Speed
Off
Bat
Elev.
Angle
Horiz.
Angle
Apex Impact Due To: Std.
Dist.
#
Parks
Wind Temp. Alt.
07/22/14 Video View Arencibia, J.P. TEX Huff, David NYY 13 Yankee Stadi... PL 442 105.2 29.3 95.7 105 10 2 0 430 30
06/03/14 Video View Moss, Brandon OAK Warren, Adam NYY 10 Yankee Stadi... ND 402 108.8 26.1 59.2 73 2 0 0 400 30
06/01/14 Video View Willingham, Josh MIN Robertson, David NYY 9 Yankee Stadi... PL 412 106.6 25.1 105.8 78 0 1 0 411 30
06/02/14 Video View Saunders, Michael SEA Aceves, Alfredo NYY 9 Yankee Stadi... PL 341 93.7 37.0 67.7 113 0 1 0 339 1
06/02/14 Video View Seager, Kyle SEA Aceves, Alfredo NYY 9 Yankee Stadi... ND 381 101.0 32.5 63.8 101 0 1 0 380 29
06/20/14 Video View Beltran, Carlos NYY Britton, Zach BAL 9 Yankee Stadi... PL 415 104.2 28.7 103.1 100 0 1 0 415 30
06/22/14 Video View Joseph, Caleb BAL Huff, David NYY 9 Yankee Stadi... PL 391 101.7 27.5 107.7 82 0 1 0 390 30
06/28/14 Video View Napoli, Mike BOS Tanaka, Masahiro NYY 9 Yankee Stadi... JE 355 101.7 22.5 70.2 53 1 0 0 355 1
06/30/14 Video View Roberts, Brian NYY Peralta, Joel TB 9 Yankee Stadi... PL 365 96.5 33.9 67.5 102 4 1 0 360 17
04/08/14 Video View Wieters, Matt BAL Nuno, Vidal NYY 8 Yankee Stadi... ND 410 107.0 27.7 112.8 88 1 -1 0 410 30
04/08/14 Video View Johnson, Kelly NYY Matusz, Brian BAL 8 Yankee Stadi... ND 408 105.4 24.6 76.8 75 1 0 0 408 29
04/12/14 Video View Johnson, Kelly NYY Badenhop, Burke BOS 8 Yankee Stadi... JE 420 106.0 22.4 87.5 72 0 0 0 420 24
05/02/14 Video View Teixeira, Mark NYY Peralta, Joel TB 8 Yankee Stadi... PL 359 97.6 28.5 63.5 73 2 -1 0 357 14
05/02/14 Video View Soriano, Alfonso NYY Peralta, Joel TB 8 Yankee Stadi... PL 382 101.2 30.3 117.6 87 4 -1 0 379 30
05/12/14 Video View Young, Chris NYM Claiborne, Preston NYY 8 Yankee Stadi... PL 398 103.5 26.2 107.3 76 2 0 0 396 30
05/13/14 Video View Solarte, Yangervis NYY Matsuzaka, Daisuke NYM 8 Yankee Stadi... PL 379 103.7 25.6 66.3 70 -1 -1 0 381 29
05/17/14 Video View McCann, Brian NYY Mazzaro, Vin PIT 8 Yankee Stadi... JE 349 107.3 20.6 59.1 45 0 0 0 350 3
06/19/14 Video View Encarnacion, Edwin TOR Kelley, Shawn NYY 8 Yankee Stadi... ND 410 105.8 32.7 111.9 119 3 1 0 406 30
06/21/14 Video View Hardy, J.J. BAL Ramirez, Jose NYY 8 Yankee Stadi... JE 364 101.5 25.8 118.6 64 0 1 0 363 19
06/27/14 Video View McCann, Brian NYY Breslow, Craig BOS 8 Yankee Stadi... ND 384 100.8 30.6 67.9 95 1 0 0 384 30
07/20/14 Video View Frazier, Todd CIN Betances, Dellin NYY 8 Yankee Stadi... PL 343 97.1 35.8 114.6 117 -15 2 0 356 28
04/10/14 Video View Nava, Daniel BOS Pineda, Michael NYY 7 Yankee Stadi... PL 372 99.7 33.7 62.8 105 4 -3 0 371 29
04/25/14 Video View Aybar, Erick LAA Billings, Bruce NYY 7 Yankee Stadi... PL 397 102.7 25.6 77.0 78 0 -2 0 398 26
04/25/14 Video View Cowgill, Collin LAA Billings, Bruce NYY 7 Yankee Stadi... PL 375 103.0 25.8 116.0 68 1 -1 0 375 29
04/27/14 Video View Teixeira, Mark NYY Richards, Garrett LAA 7 Yankee Stadi... ND 383 102.8 29.0 61.8 83 1 -2 0 384 30
05/12/14 Video View Young Jr., Eric NYM Aceves, Alfredo NYY 7 Yankee Stadi... PL 379 111.8 21.0 60.1 51 0 0 0 378 26
05/17/14 Video View Soriano, Alfonso NYY Volquez, Edinson PIT 7 Yankee Stadi... PL 405 103.5 23.9 82.3 74 0 0 0 405 18
05/18/14 Video View Harrison, Josh PIT Aceves, Alfredo NYY 7 Yankee Stadi... JE 370 97.5 33.1 108.8 105 0 -1 0 370 20
06/04/14 Video View Donaldson, Josh OAK Ramirez, Jose NYY 7 Yankee Stadi... JE 403 104.9 24.2 103.1 73 0 0 0 402 30
07/18/14 Video View Pena, Brayan CIN Phelps, David NYY 7 Yankee Stadi... PL 359 96.1 29.5 71.1 85 -5 1 0 363 12
07/24/14 Video View Arencibia, J.P. TEX Warren, Adam NYY 7 Yankee Stadi... JE 369 97.1 34.0 109.3 108 0 3 0 366 18
06/03/14 Video View Teixeira, Mark NYY Kazmir, Scott OAK 6 Yankee Stadi... JE 407 105.6 23.7 101.7 70 0 0 0 406 30
04/08/14 Video View Young, Delmon BAL Nuno, Vidal NYY 6 Yankee Stadi... PL 373 105.3 24.6 121.0 62 1 0 0 373 30
04/11/14 Video View Gomes, Jonny BOS Sabathia, CC NYY 6 Yankee Stadi... PL 404 106.1 24.5 106.4 73 1 0 0 403 30
04/11/14 Video View Sizemore, Grady BOS Sabathia, CC NYY 6 Yankee Stadi... ND 401 103.8 27.4 71.6 84 1 -1 0 400 30
04/12/14 Video View McCann, Brian NYY Lackey, John BOS 6 Yankee Stadi... PL 421 108.2 21.3 84.8 67 -1 0 0 422 24
04/13/14 Video View Napoli, Mike BOS Nova, Ivan NYY 6 Yankee Stadi... ND 439 106.4 28.8 104.0 95 14 -1 0 425 30
04/27/14 Video View Freese, David LAA Tanaka, Masahiro NYY 6 Yankee Stadi... PL 397 100.4 29.3 80.0 99 0 -2 0 399 25
05/03/14 Video View Johnson, Kelly NYY Lueke, Josh TB 6 Yankee Stadi... PL 418 110.6 20.8 80.4 61 0 0 0 418 27
05/12/14 Video View Granderson, Curtis NYM Kuroda, Hiroki NYY 6 Yankee Stadi... PL 384 104.5 22.6 75.3 59 0 0 0 383 6
05/17/14 Video View Marte, Starling PIT Betances, Dellin NYY 6 Yankee Stadi... PL 375 105.1 25.8 124.1 65 0 0 0 375 30
05/17/14 Video View Gardner, Brett NYY Volquez, Edinson PIT 6 Yankee Stadi... PL 393 100.1 26.8 79.5 81 1 0 0 392 17
05/18/14 Video View Marte, Starling PIT Nuno, Vidal NYY 6 Yankee Stadi... PL 369 96.2 33.9 75.9 110 1 -1 0 368 6
05/18/14 Video View Solarte, Yangervis NYY Cole, Gerrit PIT 6 Yankee Stadi... ND 412 106.3 25.5 74.0 80 0 0 0 412 30
06/04/14 Video View Cespedes, Yoenis OAK Daley, Matt NYY 6 Yankee Stadi... JE 335 92.6 31.4 63.7 81 -3 0 0 338 1
07/01/14 Video View Loney, James TB Kuroda, Hiroki NYY 6 Yankee Stadi... PL 401 101.4 25.9 81.6 81 0 1 0 400 15
07/02/14 Video View Rodriguez, Sean TB Kelley, Shawn NYY 6 Yankee Stadi... PL 445 107.0 25.3 91.2 90 4 1 0 440 29
06/03/14 Video View Moss, Brandon OAK Kuroda, Hiroki NYY 5 Yankee Stadi... PL 424 103.1 29.5 86.2 108 2 1 0 421 26
04/10/14 Video View Anna, Dean NYY Buchholz, Clay BOS 5 Yankee Stadi... PL 363 99.0 28.8 62.4 77 0 -2 0 364 25
04/25/14 Video View Pujols, Albert LAA Kuroda, Hiroki NYY 5 Yankee Stadi... ND 410 106.0 29.4 115.6 91 7 -3 0 405 30
04/26/14 Video View Murphy, John Ryan NYY Santiago, Hector LAA 5 Yankee Stadi... PL 394 100.6 30.8 104.1 104 1 -1 0 394 30
05/02/14 Video View Jennings, Desmond TB Nuno, Vidal NYY 5 Yankee Stadi... JE 397 99.0 28.7 82.1 90 4 -1 0 394 10
05/12/14 Video View d'Arnaud, Travis NYM Kuroda, Hiroki NYY 5 Yankee Stadi... JE 359 93.5 31.5 74.4 89 3 1 0 355 0
05/13/14 Video View Murphy, Daniel NYM Aceves, Alfredo NYY 5 Yankee Stadi... ND 390 106.1 31.8 58.7 105 -7 -2 0 400 30
05/18/14 Video View Sanchez, Tony PIT Kuroda, Hiroki NYY 5 Yankee Stadi... PL 368 98.2 33.0 109.9 106 -4 -1 0 373 29
06/21/14 Video View Pearce, Steve BAL Nuno, Vidal NYY 5 Yankee Stadi... PL 418 107.2 25.5 105.3 81 0 1 0 417 30
07/18/14 Video View Ellsbury, Jacoby NYY Leake, Mike CIN 5 Yankee Stadi... PL 357 102.3 24.4 60.3 58 0 0 0 357 13
07/19/14 Video View Heisey, Chris CIN McCarthy, Brandon NYY 5 Yankee Stadi... PL 395 104.2 35.0 108.7 134 0 2 0 393 30
05/31/14 Video View Solarte, Yangervis NYY Correia, Kevin MIN 4 Yankee Stadi... PL 396 100.5 28.4 77.5 90 1 0 0 394 26
05/30/14 Video View Plouffe, Trevor MIN Nuno, Vidal NYY 4 Yankee Stadi... JE 420 106.4 22.0 87.5 72 0 0 0 420 24
05/30/14 Video View Willingham, Josh MIN Nuno, Vidal NYY 4 Yankee Stadi... PL 416 106.4 23.3 98.5 78 -1 0 0 417 30
04/08/14 Video View Soriano, Alfonso NYY Chen, Wei-Yin BAL 4 Yankee Stadi... PL 401 104.7 27.3 113.1 81 5 -1 0 396 30
04/12/14 Video View McCann, Brian NYY Lackey, John BOS 4 Yankee Stadi... PL 366 97.1 33.2 63.9 95 5 0 0 360 25
04/12/14 Video View Soriano, Alfonso NYY Lackey, John BOS 4 Yankee Stadi... JE 373 99.0 25.0 76.8 68 0 0 0 373 1
05/03/14 Video View Myers, Wil TB Tanaka, Masahiro NYY 4 Yankee Stadi... PL 335 92.5 32.9 55.7 80 5 0 0 330 2
05/03/14 Video View Teixeira, Mark NYY Odorizzi, Jake TB 4 Yankee Stadi... ND 382 100.1 32.2 68.3 103 1 0 0 381 29
06/04/14 Video View Cespedes, Yoenis OAK Nuno, Vidal NYY 4 Yankee Stadi... JE 422 104.9 24.0 86.9 83 0 0 0 421 24
06/18/14 Video View McCann, Brian NYY Buehrle, Mark TOR 4 Yankee Stadi... JE 348 102.0 23.0 61.4 51 0 1 0 347 1
06/21/14 Video View Cruz, Nelson BAL Nuno, Vidal NYY 4 Yankee Stadi... PL 359 98.0 27.1 67.2 70 -1 1 0 359 10
06/21/14 Video View Teixeira, Mark NYY Norris, Bud BAL 4 Yankee Stadi... JE 397 99.8 26.9 83.5 86 0 1 0 396 9
06/27/14 Video View Johnson, Kelly NYY Workman, Brandon BOS 4 Yankee Stadi... ND 418 104.1 30.2 78.1 110 1 0 0 416 29
06/27/14 Video View Gardner, Brett NYY Workman, Brandon BOS 4 Yankee Stadi... JE 372 102.5 22.5 75.2 58 1 0 0 371 1
06/29/14 Video View Teixeira, Mark NYY Lackey, John BOS 4 Yankee Stadi... ND 374 102.8 28.0 55.7 73 1 1 0 372 30
06/29/14 Video View Beltran, Carlos NYY Lackey, John BOS 4 Yankee Stadi... ND 411 103.3 28.1 75.3 90 4 0 0 406 29
07/21/14 Video View Ellsbury, Jacoby NYY Mikolas, Miles TEX 4 Yankee Stadi... PL 352 95.3 31.9 62.9 86 0 1 0 351 19
04/13/14 Video View Beltran, Carlos NYY Doubront, Felix BOS 3 Yankee Stadi... JE 353 96.8 28.9 121.7 68 6 0 0 347 6
04/25/14 Video View Stewart, Ian LAA Kuroda, Hiroki NYY 3 Yankee Stadi... JE 414 103.2 24.9 86.6 82 1 -2 0 414 19
05/04/14 Video View Myers, Wil TB Sabathia, CC NYY 3 Yankee Stadi... NQ 406 101.9 24.8 86.3 78 1 -1 0 406 11
05/17/14 Video View Almonte, Zoilo NYY Volquez, Edinson PIT 3 Yankee Stadi... ND 411 104.8 27.1 73.3 84 3 0 0 408 30
06/04/14 Video View Ellsbury, Jacoby NYY Chavez, Jesse OAK 3 Yankee Stadi... JE 396 99.7 27.2 82.8 89 -1 0 0 396 9
06/05/14 Video View Gardner, Brett NYY Pomeranz, Drew OAK 3 Yankee Stadi... PL 377 100.3 32.7 65.7 104 -2 0 0 378 29
06/17/14 Video View Gardner, Brett NYY Stroman, Marcus TOR 3 Yankee Stadi... JE 331 98.9 24.5 51.0 52 0 1 1 330 2
06/19/14 Video View Cabrera, Melky TOR Phelps, David NYY 3 Yankee Stadi... PL 350 95.0 32.7 60.0 87 2 1 0 347 17
06/28/14 Video View Ross, David BOS Tanaka, Masahiro NYY 3 Yankee Stadi... JE 397 103.1 24.8 102.1 75 -1 0 0 398 27
06/29/14 Video View Ortiz, David BOS Whitley, Chase NYY 3 Yankee Stadi... ND 424 104.5 30.0 77.5 107 6 1 0 417 29
06/30/14 Video View Kiermaier, Kevin TB Phelps, David NYY 3 Yankee Stadi... PL 399 101.1 28.4 74.5 86 5 1 0 393 26
07/02/14 Video View McCann, Brian NYY Odorizzi, Jake TB 3 Yankee Stadi... PL 342 95.3 38.1 62.8 117 0 5 0 337 10
07/18/14 Video View Pena, Brayan CIN Phelps, David NYY 3 Yankee Stadi... PL 343 94.9 36.5 63.7 110 -3 2 0 343 14
07/23/14 Video View Gardner, Brett NYY Darvish, Yu TEX 3 Yankee Stadi... PL 371 98.3 36.7 74.8 130 1 4 0 365 5
07/25/14 Video View Bautista, Jose TOR Kuroda, Hiroki NYY 3 Yankee Stadi... JE 362 99.2 27.8 116.1 74 -2 1 0 364 21
07/25/14 Video View Beltran, Carlos NYY Buehrle, Mark TOR 3 Yankee Stadi... PL 401 102.7 29.5 105.5 101 -4 1 0 403 30
07/25/14 Video View Suzuki, Ichiro NYY Buehrle, Mark TOR 3 Yankee Stadi... JE 355 98.3 24.6 71.8 62 -1 0 0 356 1
05/30/14 Video View Arcia, Oswaldo MIN Nuno, Vidal NYY 2 Yankee Stadi... ND 405 110.8 23.9 65.6 70 -2 0 0 408 30
04/09/14 Video View Schoop, Jonathan BAL Tanaka, Masahiro NYY 2 Yankee Stadi... ND 407 108.5 32.3 122.0 110 1 -3 0 410 30
04/09/14 Video View Beltran, Carlos NYY Gonzalez, Miguel BAL 2 Yankee Stadi... PL 382 99.5 33.6 69.5 109 7 -4 0 377 29
04/09/14 Video View Johnson, Kelly NYY Gonzalez, Miguel BAL 2 Yankee Stadi... PL 366 95.5 30.3 76.2 91 0 -2 0 368 2
04/11/14 Video View Soriano, Alfonso NYY Lester, Jon BOS 2 Yankee Stadi... ND 378 102.6 29.6 123.1 82 0 0 0 378 30
04/12/14 Video View Pierzynski, A.J. BOS Kuroda, Hiroki NYY 2 Yankee Stadi... ND 406 104.8 29.0 67.2 90 4 0 0 402 30
04/29/14 Video View Teixeira, Mark NYY Young, Chris SEA 2 Yankee Stadi... PL 353 99.8 35.1 66.8 123 -11 -6 0 371 29
05/02/14 Video View McCann, Brian NYY Price, David TB 2 Yankee Stadi... JE/L 357 93.7 32.7 77.2 100 -1 -1 0 359 1
05/12/14 Video View Gardner, Brett NYY Colon, Bartolo NYM 2 Yankee Stadi... PL 396 102.4 26.4 74.3 77 2 1 0 394 25
06/22/14 Video View Schoop, Jonathan BAL Tanaka, Masahiro NYY 2 Yankee Stadi... PL 379 98.8 29.3 106.8 89 -2 1 0 380 27
07/19/14 Video View Beltran, Carlos NYY Simon, Alfredo CIN 2 Yankee Stadi... PL 380 101.3 26.3 72.4 78 -4 0 0 383 25
04/08/14 Video View Jones, Adam BAL Nova, Ivan NYY 1 Yankee Stadi... JE 428 107.6 21.8 90.6 71 0 0 0 429 26
04/12/14 Video View Beltran, Carlos NYY Lackey, John BOS 1 Yankee Stadi... ND 417 108.0 24.6 74.6 77 0 0 0 418 30
04/16/14 Video View Beltran, Carlos NYY Hammel, Jason CHC 1 Yankee Stadi... PL 385 100.2 30.7 73.1 101 0 -4 0 389 29
04/26/14 Video View Trout, Mike LAA Nuno, Vidal NYY 1 Yankee Stadi... PL 400 101.1 28.2 78.4 91 2 -1 0 399 26
05/01/14 Video View Ellsbury, Jacoby NYY Elias, Roenis SEA 1 Yankee Stadi... PL 370 95.9 29.6 74.3 83 3 1 0 367 2
05/03/14 Video View Jennings, Desmond TB Tanaka, Masahiro NYY 1 Yankee Stadi... JE 390 101.2 24.7 79.9 71 0 0 0 390 9
05/13/14 Video View Granderson, Curtis NYM Nuno, Vidal NYY 1 Yankee Stadi... PL 375 106.0 22.2 70.0 57 0 0 0 376 16
05/13/14 Video View McCann, Brian NYY Wheeler, Zack NYM 1 Yankee Stadi... PL 378 106.8 22.6 67.2 57 0 0 0 378 23
05/17/14 Video View Teixeira, Mark NYY Volquez, Edinson PIT 1 Yankee Stadi... JE 352 96.7 25.8 70.7 64 0 0 0 352 1
05/18/14 Video View Walker, Neil PIT Kuroda, Hiroki NYY 1 Yankee Stadi... PL 400 102.9 26.7 75.8 83 0 -1 0 401 29
06/05/14 Video View Jaso, John OAK Tanaka, Masahiro NYY 1 Yankee Stadi... PL 365 101.1 37.3 70.7 139 -3 0 0 368 24
06/17/14 Video View Reyes, Jose TOR Tanaka, Masahiro NYY 1 Yankee Stadi... JE 340 94.1 29.8 60.6 72 0 2 0 339 1
06/21/14 Video View Jones, Adam BAL Nuno, Vidal NYY 1 Yankee Stadi... ND 412 110.0 25.5 116.0 75 0 1 0 411 30
06/30/14 Video View Joyce, Matt TB Phelps, David NYY 1 Yankee Stadi... PL 409 103.1 25.0 82.8 79 1 1 0 409 16
07/02/14 Video View Gardner, Brett NYY Odorizzi, Jake TB 1 Yankee Stadi... PL 384 99.6 31.8 69.6 100 0 3 0 380 28
07/25/14 Video View Bautista, Jose TOR Kuroda, Hiroki NYY 1 Yankee Stadi... PL 397 101.2 30.4 105.7 101 0 1 0 395 30


About HitTracker | Contact Us
© 2006-2009 HitTrackerOnline